メインページ
METAR-TAF:

METAR-TAF

空港 :

チュニス・カルタゴ国際空港

チュニス, チュニジア

緯度: 36-50N, 経度: 010-14E, 海抜: 3m

現時点の気象観測

当レポートは21分前の12:00(UTC)に作成
の風 3kt、西から東/北東の間で変化する
気温 24°C
湿度 74%
気圧 1017 hPa
視程10km以上
高度1600ftの雲は散在している
高度4600ftの千切れ雲あり

METAR: DTTA 211200Z 35003KT 260V060 9999 SCT016 BKN046 24/19 Q1017 NOSIG

時間: 13:21 (12:21 UTC)

予報

当レポートは1時間21分前の11:00(UTC)に作成
予報は21日の 12時(UTC)から 22日の 12時(UTC)まで有効
東/北東の風 5kt
視程10km以上
高度2600ftの雲はほとんどない
22日の 02時(UTC)から 22日の 04時(UTC)まで徐々に
西/南西の風 10kt
間 2Dから UTC一時的に
北西の風 15kt、最大27ktの突風を伴う
視程: 4000m
高度3000ftの雲はほとんどない, 積乱雲.
激しい雷雨, にわか雨

TAF: DTTA 211100Z 2112/2212 06005KT 9999 FEW026 BECMG 2202/2204 25010KT TEMPO 2D 7/2212 32015G27KT 4000 TS SHRA FEW030CB

4,000以上の空港の気象観測と天気予報(METAR報とTAF報)

利用可能な観測所は地図上に黄色い丸と赤い丸で示す。

丸の上にカーソルを重ねると観測所名を参照できる。

次にクリックすると気象観測と天気予報を参照できる。

マップの切り替え:黒色「×」印の緑ボタンをクリックして拡大、「-」印の緑ボタンをクリックして縮小、緑色の三角印をクリックして隣りの地図に切り替え


METAR-TAF: